createdAt,value
2018-05-23T00:01:42.143Z,7.73
2018-05-23T00:04:08.572Z,8.20
2018-05-23T00:06:34.926Z,7.23
2018-05-23T00:09:01.344Z,7.47
2018-05-23T00:11:27.751Z,7.33
2018-05-23T00:13:54.072Z,6.60
2018-05-23T00:16:20.465Z,7.20
2018-05-23T00:18:46.945Z,7.13
2018-05-23T00:21:13.397Z,7.07
2018-05-23T00:23:39.778Z,7.80
2018-05-23T00:26:06.235Z,7.33
2018-05-23T00:28:32.739Z,7.17
2018-05-23T00:30:59.149Z,8.47
2018-05-23T00:33:25.557Z,7.93
2018-05-23T00:35:51.960Z,7.50
2018-05-23T00:38:18.490Z,7.20
2018-05-23T00:40:44.994Z,7.80
2018-05-23T00:43:11.475Z,7.53
2018-05-23T00:45:37.853Z,7.53
2018-05-23T00:48:04.320Z,8.77
2018-05-23T00:50:30.843Z,7.20
2018-05-23T00:52:57.219Z,8.13
2018-05-23T00:55:29.754Z,7.37
2018-05-23T00:57:56.063Z,7.00
2018-05-23T01:00:22.485Z,7.37
2018-05-23T01:02:48.878Z,8.20
2018-05-23T01:05:15.274Z,8.63
2018-05-23T01:07:41.646Z,8.57
2018-05-23T01:10:08.085Z,7.50
2018-05-23T01:12:34.524Z,7.50
2018-05-23T01:15:00.975Z,8.47
2018-05-23T01:17:27.302Z,6.87
2018-05-23T01:19:53.701Z,7.07
2018-05-23T01:22:20.197Z,8.50
2018-05-23T01:24:46.579Z,7.37
2018-05-23T01:27:12.966Z,8.27
2018-05-23T01:29:39.392Z,8.30
2018-05-23T01:32:05.784Z,8.30
2018-05-23T01:34:32.135Z,8.40
2018-05-23T01:36:58.543Z,8.13
2018-05-23T01:39:25.033Z,8.30
2018-05-23T01:41:51.390Z,7.67
2018-05-23T01:44:17.812Z,8.20
2018-05-23T01:46:44.152Z,7.23
2018-05-23T01:49:20.868Z,8.03
2018-05-23T01:51:47.245Z,7.43
2018-05-23T01:54:13.651Z,8.17
2018-05-23T01:56:39.985Z,7.33
2018-05-23T01:59:06.438Z,7.70
2018-05-23T02:01:32.790Z,7.30
2018-05-23T02:03:59.164Z,7.37
2018-05-23T02:06:25.581Z,7.90
2018-05-23T02:08:52.070Z,7.17
2018-05-23T02:11:18.385Z,7.00
2018-05-23T02:13:44.769Z,6.87
2018-05-23T02:16:11.209Z,7.33
2018-05-23T02:18:37.641Z,7.50
2018-05-23T02:21:03.965Z,7.27
2018-05-23T02:23:30.266Z,8.23
2018-05-23T02:25:56.616Z,9.33
2018-05-23T02:28:23.023Z,7.70
2018-05-23T02:30:49.381Z,7.67
2018-05-23T02:33:15.755Z,7.03
2018-05-23T02:35:42.112Z,7.27
2018-05-23T02:38:08.445Z,8.43
2018-05-23T02:40:34.798Z,6.97
2018-05-23T02:43:01.152Z,7.63
2018-05-23T02:45:27.484Z,7.43
2018-05-23T02:47:53.796Z,8.10
2018-05-23T02:50:20.303Z,7.60
2018-05-23T02:52:46.689Z,7.10
2018-05-23T02:55:13.201Z,7.97
2018-05-23T02:57:39.594Z,7.43
2018-05-23T03:00:06.045Z,7.53
2018-05-23T03:02:32.400Z,6.80
2018-05-23T03:04:58.717Z,7.13
2018-05-23T03:07:25.144Z,8.10
2018-05-23T03:09:51.524Z,7.73
2018-05-23T03:12:17.886Z,7.33
2018-05-23T03:14:44.239Z,8.57
2018-05-23T03:17:10.596Z,8.47
2018-05-23T03:19:37.012Z,8.33
2018-05-23T03:22:03.548Z,7.77
2018-05-23T03:24:29.913Z,8.17
2018-05-23T03:26:56.289Z,7.87
2018-05-23T03:29:22.751Z,7.77
2018-05-23T03:31:49.262Z,6.70
2018-05-23T03:34:15.697Z,6.77
2018-05-23T03:36:42.094Z,7.00
2018-05-23T03:39:08.542Z,6.33
2018-05-23T03:41:34.889Z,6.53
2018-05-23T03:44:01.319Z,6.63
2018-05-23T03:46:27.710Z,6.10
2018-05-23T03:48:54.381Z,6.03
2018-05-23T03:51:20.831Z,6.03
2018-05-23T03:53:47.213Z,5.70
2018-05-23T03:56:13.639Z,6.57
2018-05-23T03:58:40.023Z,6.50
2018-05-23T04:01:18.518Z,5.13
2018-05-23T04:03:57.092Z,5.47
2018-05-23T04:06:35.872Z,5.70
2018-05-23T04:09:02.565Z,6.10
2018-05-23T04:11:28.900Z,5.67
2018-05-23T04:13:55.204Z,5.77
2018-05-23T04:16:21.682Z,5.27
2018-05-23T04:18:48.068Z,5.00
2018-05-23T04:21:14.485Z,5.37
2018-05-23T04:23:40.915Z,5.00
2018-05-23T04:26:07.269Z,5.27
2018-05-23T04:28:33.722Z,5.67
2018-05-23T04:31:00.140Z,5.43
2018-05-23T04:33:26.572Z,5.43
2018-05-23T04:35:53.019Z,6.27
2018-05-23T04:38:19.452Z,6.00
2018-05-23T04:40:45.879Z,5.90
2018-05-23T04:43:12.334Z,7.07
2018-05-23T04:45:38.700Z,6.37
2018-05-23T04:48:05.201Z,6.33
2018-05-23T04:50:31.776Z,6.00
2018-05-23T04:52:58.183Z,6.17
2018-05-23T04:55:24.785Z,6.93
2018-05-23T04:57:51.140Z,7.50
2018-05-23T05:00:21.219Z,8.23
2018-05-23T05:02:47.574Z,8.37
2018-05-23T05:05:13.975Z,7.90
2018-05-23T05:07:40.561Z,8.50
2018-05-23T05:10:07.128Z,8.77
2018-05-23T05:12:33.566Z,8.37
2018-05-23T05:15:00.071Z,8.97
2018-05-23T05:17:26.423Z,11.50
2018-05-23T05:19:52.946Z,8.90
2018-05-23T05:22:19.401Z,11.37
2018-05-23T05:24:45.798Z,10.47
2018-05-23T05:27:12.170Z,9.90
2018-05-23T05:29:41.859Z,12.17
2018-05-23T05:32:08.324Z,11.10
2018-05-23T05:34:34.740Z,10.83
2018-05-23T05:37:01.650Z,12.50
2018-05-23T05:39:28.030Z,11.80
2018-05-23T05:41:54.461Z,12.50
2018-05-23T05:44:20.927Z,12.90
2018-05-23T05:46:47.337Z,12.23
2018-05-23T05:49:14.825Z,12.17
2018-05-23T05:51:41.161Z,13.67
2018-05-23T05:54:08.084Z,12.70
2018-05-23T05:56:34.658Z,13.97
2018-05-23T05:59:01.216Z,12.73
2018-05-23T06:01:27.608Z,12.93
2018-05-23T06:03:54.045Z,12.20
2018-05-23T06:06:20.477Z,14.10
2018-05-23T06:08:46.967Z,13.20
2018-05-23T06:11:13.540Z,13.43
2018-05-23T06:13:40.009Z,13.27
2018-05-23T06:16:07.417Z,13.90
2018-05-23T06:18:33.933Z,15.07
2018-05-23T06:21:00.342Z,14.43
2018-05-23T06:23:26.697Z,15.30
2018-05-23T06:25:53.047Z,13.70
2018-05-23T06:28:19.476Z,13.03
2018-05-23T06:30:47.373Z,12.83
2018-05-23T06:33:14.052Z,14.00
2018-05-23T06:35:40.788Z,12.27
2018-05-23T06:38:07.263Z,12.23
2018-05-23T06:40:33.789Z,11.37
2018-05-23T06:43:00.421Z,12.13
2018-05-23T06:45:27.011Z,12.63
2018-05-23T06:47:53.641Z,11.73
2018-05-23T06:50:20.304Z,11.97
2018-05-23T06:52:46.795Z,11.60
2018-05-23T06:55:13.439Z,11.60
2018-05-23T06:57:39.943Z,11.37
2018-05-23T07:00:06.629Z,11.63
2018-05-23T07:02:33.408Z,12.83
2018-05-23T07:04:59.890Z,11.00
2018-05-23T07:07:26.303Z,11.27
2018-05-23T07:09:52.816Z,10.73
2018-05-23T07:12:20.295Z,11.60
2018-05-23T07:14:46.779Z,10.77
2018-05-23T07:17:13.145Z,10.73
2018-05-23T07:19:39.774Z,10.27
2018-05-23T07:22:06.249Z,9.77
2018-05-23T07:24:32.751Z,10.47
2018-05-23T07:26:59.831Z,10.40
2018-05-23T07:29:26.353Z,10.30
2018-05-23T07:31:53.289Z,10.97
2018-05-23T07:34:19.693Z,10.87
2018-05-23T07:36:46.030Z,11.90
2018-05-23T07:39:12.482Z,9.60
2018-05-23T07:41:38.975Z,10.07
2018-05-23T07:44:05.736Z,10.10
2018-05-23T07:46:32.187Z,10.67
2018-05-23T07:48:58.752Z,10.47
2018-05-23T07:51:25.381Z,10.77
2018-05-23T07:53:51.791Z,10.60
2018-05-23T07:56:18.183Z,8.33
2018-05-23T07:58:44.595Z,9.23
2018-05-23T08:01:10.950Z,8.20
2018-05-23T08:03:37.309Z,8.97
2018-05-23T08:06:03.822Z,9.50
2018-05-23T08:08:30.307Z,10.33
2018-05-23T08:10:57.773Z,9.00
2018-05-23T08:13:24.153Z,9.50
2018-05-23T08:15:50.550Z,9.70
2018-05-23T08:18:18.006Z,9.40
2018-05-23T08:20:44.557Z,9.47
2018-05-23T08:23:10.901Z,9.33
2018-05-23T08:25:37.332Z,9.60
2018-05-23T08:28:03.828Z,10.53
2018-05-23T08:30:30.336Z,10.37
2018-05-23T08:32:56.845Z,9.57
2018-05-23T08:35:23.262Z,10.13
2018-05-23T08:37:49.829Z,9.43
2018-05-23T08:40:16.354Z,9.67
2018-05-23T08:42:42.858Z,10.43
2018-05-23T08:45:09.248Z,9.37
2018-05-23T08:47:35.767Z,9.50
2018-05-23T08:50:02.213Z,9.77
2018-05-23T08:52:28.613Z,9.63
2018-05-23T08:54:54.982Z,9.63
2018-05-23T08:57:21.422Z,9.40
2018-05-23T08:59:47.963Z,9.87
2018-05-23T09:02:14.469Z,9.93
2018-05-23T09:04:41.020Z,9.73
2018-05-23T09:07:07.453Z,8.53
2018-05-23T09:09:33.963Z,9.83
2018-05-23T09:12:00.343Z,9.90
2018-05-23T09:14:27.168Z,9.60
2018-05-23T09:16:53.841Z,8.47
2018-05-23T09:19:20.434Z,8.60
2018-05-23T09:21:46.789Z,8.33
2018-05-23T09:24:13.252Z,9.87
2018-05-23T09:26:39.663Z,9.60
2018-05-23T09:29:07.395Z,9.17
2018-05-23T09:31:33.998Z,9.03
2018-05-23T09:34:00.469Z,9.27
2018-05-23T09:36:26.985Z,9.10
2018-05-23T09:38:53.618Z,8.50
2018-05-23T09:41:20.108Z,8.83
2018-05-23T09:43:46.902Z,7.67
2018-05-23T09:46:13.938Z,9.50
2018-05-23T09:48:41.292Z,9.47
2018-05-23T09:51:09.691Z,7.73
2018-05-23T09:53:36.470Z,7.17
2018-05-23T09:56:03.080Z,8.10
2018-05-23T09:58:29.478Z,7.77
2018-05-23T10:00:55.992Z,7.50
2018-05-23T10:03:22.434Z,7.40
2018-05-23T10:05:48.960Z,6.83
2018-05-23T10:08:15.511Z,7.37
2018-05-23T10:10:42.215Z,7.07
2018-05-23T10:13:08.571Z,7.50
2018-05-23T10:15:35.112Z,7.17
2018-05-23T10:18:01.668Z,6.73
2018-05-23T10:20:28.209Z,7.30
2018-05-23T10:22:55.268Z,7.00
2018-05-23T10:25:21.925Z,8.03
2018-05-23T10:27:48.323Z,7.10
2018-05-23T10:30:14.830Z,7.50
2018-05-23T10:32:41.413Z,6.77
2018-05-23T10:35:07.879Z,7.23
2018-05-23T10:37:34.550Z,7.27
2018-05-23T10:40:01.283Z,8.37
2018-05-23T10:42:27.644Z,7.80
2018-05-23T10:44:54.170Z,7.20
2018-05-23T10:47:20.611Z,7.97
2018-05-23T10:49:47.202Z,7.37
2018-05-23T10:52:13.654Z,7.77
2018-05-23T10:54:40.061Z,7.00
2018-05-23T10:57:06.782Z,6.93
2018-05-23T10:59:33.441Z,6.67
2018-05-23T11:02:00.293Z,7.37
2018-05-23T11:04:26.745Z,6.13
2018-05-23T11:06:53.229Z,7.13
2018-05-23T11:09:19.835Z,6.50
2018-05-23T11:11:46.289Z,7.00
2018-05-23T11:14:12.611Z,5.90
2018-05-23T11:16:39.031Z,6.83
2018-05-23T11:19:05.496Z,6.27
2018-05-23T11:21:32.236Z,6.53
2018-05-23T11:23:58.709Z,6.00
2018-05-23T11:26:25.177Z,7.40
2018-05-23T11:28:51.504Z,6.63
2018-05-23T11:31:18.028Z,6.63
2018-05-23T11:33:44.414Z,6.40
2018-05-23T11:36:10.842Z,5.87
2018-05-23T11:38:37.294Z,6.07
2018-05-23T11:41:03.811Z,6.27
2018-05-23T11:43:30.308Z,6.67
2018-05-23T11:45:57.121Z,6.63
2018-05-23T11:48:23.924Z,6.87
2018-05-23T11:50:50.559Z,6.30
2018-05-23T11:53:18.120Z,6.80
2018-05-23T11:55:44.558Z,7.10
2018-05-23T11:58:11.533Z,7.77
2018-05-23T12:00:38.173Z,7.50
2018-05-23T12:03:04.769Z,6.97
2018-05-23T12:05:31.480Z,8.07
2018-05-23T12:07:57.878Z,6.50
2018-05-23T12:10:24.610Z,6.63
2018-05-23T12:12:51.635Z,6.90
2018-05-23T12:15:18.054Z,7.13
2018-05-23T12:17:44.574Z,7.10
2018-05-23T12:20:11.055Z,7.97
2018-05-23T12:22:37.762Z,8.17
2018-05-23T12:25:04.556Z,7.83
2018-05-23T12:27:31.040Z,7.93
2018-05-23T12:29:58.651Z,8.07
2018-05-23T12:32:25.382Z,9.87
2018-05-23T12:34:51.758Z,6.67
2018-05-23T12:37:18.114Z,5.87
2018-05-23T12:39:44.673Z,6.47
2018-05-23T12:42:11.206Z,6.27
2018-05-23T12:44:37.641Z,6.27
2018-05-23T12:47:04.095Z,7.07
2018-05-23T12:49:31.750Z,7.03
2018-05-23T12:51:59.317Z,6.93
2018-05-23T12:54:25.789Z,5.90
2018-05-23T12:56:52.767Z,7.63
2018-05-23T12:59:19.917Z,9.10
2018-05-23T13:01:46.673Z,8.67
2018-05-23T13:04:13.104Z,8.33
2018-05-23T13:06:39.694Z,8.20
2018-05-23T13:09:06.213Z,7.73
2018-05-23T13:11:32.700Z,8.37
2018-05-23T13:13:59.046Z,9.43
2018-05-23T13:16:25.475Z,8.13
2018-05-23T13:18:51.988Z,8.17
2018-05-23T13:38:26.764Z,9.57
2018-05-23T13:40:53.212Z,9.80
2018-05-23T13:46:16.593Z,9.67
2018-05-23T13:51:40.389Z,9.30
2018-05-23T13:57:04.040Z,10.03
2018-05-23T14:03:01.023Z,9.43
2018-05-23T14:17:19.268Z,10.43
2018-05-23T14:22:58.906Z,9.70
2018-05-23T14:25:25.338Z,9.17
2018-05-23T14:27:51.859Z,10.50
2018-05-23T14:30:18.313Z,9.63
2018-05-23T14:32:44.884Z,10.33
2018-05-23T14:35:11.404Z,9.87
2018-05-23T14:37:40.203Z,9.97
2018-05-23T14:40:08.306Z,7.30
2018-05-23T14:42:35.124Z,8.10
2018-05-23T14:45:01.585Z,7.73
2018-05-23T14:47:28.100Z,8.40
2018-05-23T14:49:54.628Z,8.63
2018-05-23T14:52:21.134Z,8.50
2018-05-23T14:54:47.720Z,8.97
2018-05-23T14:57:14.150Z,8.43
2018-05-23T14:59:40.688Z,8.70
2018-05-23T15:02:07.128Z,8.53
2018-05-23T15:04:33.504Z,9.00
2018-05-23T15:06:59.917Z,7.83
2018-05-23T15:09:26.463Z,8.20
2018-05-23T15:11:52.929Z,7.90
2018-05-23T15:14:19.368Z,7.33
2018-05-23T15:16:45.838Z,7.80
2018-05-23T15:19:12.275Z,7.60
2018-05-23T15:21:39.679Z,7.27
2018-05-23T15:24:06.173Z,7.10
2018-05-23T15:26:32.534Z,6.47
2018-05-23T15:28:59.372Z,6.50
2018-05-23T15:31:27.063Z,7.23
2018-05-23T15:33:53.426Z,5.97
2018-05-23T15:36:19.895Z,6.60
2018-05-23T15:38:46.345Z,6.43
2018-05-23T15:41:13.005Z,5.87
2018-05-23T15:43:39.429Z,6.10
2018-05-23T15:46:05.947Z,5.73
2018-05-23T15:48:32.726Z,6.43
2018-05-23T15:50:59.305Z,6.40
2018-05-23T15:53:25.911Z,6.00
2018-05-23T15:55:52.361Z,5.97
2018-05-23T15:58:18.799Z,5.63
2018-05-23T16:00:45.363Z,6.47
2018-05-23T16:03:11.778Z,6.77
2018-05-23T16:05:38.307Z,5.67
2018-05-23T16:08:05.165Z,5.60
2018-05-23T16:10:31.741Z,6.13
2018-05-23T16:12:58.347Z,5.60
2018-05-23T16:15:25.274Z,6.40
2018-05-23T16:17:52.202Z,5.93
2018-05-23T16:20:19.834Z,6.33
2018-05-23T16:22:46.874Z,6.33
2018-05-23T16:25:14.742Z,6.50
2018-05-23T16:27:42.463Z,6.97
2018-05-23T16:30:09.820Z,6.50
2018-05-23T16:32:36.908Z,7.33
2018-05-23T16:35:04.233Z,6.47
2018-05-23T16:37:31.574Z,7.00
2018-05-23T16:39:58.787Z,6.77
2018-05-23T16:42:25.227Z,7.63
2018-05-23T16:44:51.816Z,7.20
2018-05-23T16:47:19.764Z,7.60
2018-05-23T16:49:47.517Z,7.07
2018-05-23T16:52:15.278Z,7.03
2018-05-23T16:54:42.181Z,7.77
2018-05-23T16:57:09.832Z,7.67
2018-05-23T16:59:36.250Z,6.73
2018-05-23T17:02:02.658Z,7.10
2018-05-23T17:04:29.413Z,7.23
2018-05-23T17:06:56.284Z,6.80
2018-05-23T17:09:23.487Z,6.90
2018-05-23T17:11:50.244Z,6.73
2018-05-23T17:14:17.261Z,6.43
2018-05-23T17:16:43.757Z,5.93
2018-05-23T17:19:10.309Z,5.67
2018-05-23T17:21:37.114Z,5.50
2018-05-23T17:24:03.700Z,5.70
2018-05-23T17:26:30.521Z,5.70
2018-05-23T17:28:56.952Z,5.67
2018-05-23T17:31:23.801Z,5.33
2018-05-23T17:33:50.315Z,5.20
2018-05-23T17:36:16.802Z,5.27
2018-05-23T17:38:43.208Z,6.07
2018-05-23T17:41:09.841Z,5.33
2018-05-23T17:43:36.430Z,5.80
2018-05-23T17:46:03.288Z,6.13
2018-05-23T17:48:29.852Z,6.37
2018-05-23T17:55:21.468Z,6.10
2018-05-23T17:57:49.118Z,6.07
2018-05-23T18:00:15.816Z,6.40
2018-05-23T18:02:42.890Z,6.53
2018-05-23T18:05:09.828Z,7.93
2018-05-23T18:07:36.989Z,9.23
2018-05-23T18:10:04.111Z,7.13
2018-05-23T18:12:34.310Z,10.63
2018-05-23T18:15:04.069Z,9.37
2018-05-23T18:17:32.818Z,9.13
2018-05-23T18:20:04.150Z,8.40
2018-05-23T18:22:33.825Z,8.67
2018-05-23T18:25:00.442Z,8.80
2018-05-23T18:27:27.161Z,9.10
2018-05-23T18:29:54.545Z,8.77
2018-05-23T18:32:23.209Z,8.10
2018-05-23T18:34:49.924Z,7.63
2018-05-23T18:37:16.397Z,7.87
2018-05-23T18:39:43.090Z,8.43
2018-05-23T18:42:13.433Z,7.93
2018-05-23T18:44:40.652Z,7.40
2018-05-23T18:47:07.693Z,8.23
2018-05-23T18:49:34.465Z,7.40
2018-05-23T18:52:05.469Z,7.80
2018-05-23T18:54:34.685Z,6.87
2018-05-23T18:57:02.928Z,7.53
2018-05-23T18:59:29.956Z,7.83
2018-05-23T19:01:58.153Z,6.90
2018-05-23T19:04:26.239Z,6.77
2018-05-23T19:06:53.465Z,7.60
2018-05-23T19:09:23.941Z,7.67
2018-05-23T19:11:51.171Z,6.80
2018-05-23T19:14:27.177Z,7.07
2018-05-23T19:16:57.332Z,7.10
2018-05-23T19:19:24.429Z,6.90
2018-05-23T19:21:51.255Z,8.17
2018-05-23T19:24:18.926Z,8.33
2018-05-23T19:26:47.255Z,8.80
2018-05-23T19:29:14.522Z,8.37
2018-05-23T19:31:42.296Z,8.47
2018-05-23T19:34:11.588Z,8.17
2018-05-23T19:36:44.804Z,8.80
2018-05-23T19:39:16.941Z,7.97
2018-05-23T19:41:48.938Z,7.57
2018-05-23T19:44:15.800Z,7.33
2018-05-23T19:46:42.985Z,7.33
2018-05-23T19:49:09.706Z,8.20
2018-05-23T19:51:36.197Z,8.40
2018-05-23T19:54:02.712Z,7.80
2018-05-23T19:56:29.602Z,6.83
2018-05-23T19:59:00.582Z,7.23
2018-05-23T20:01:30.611Z,7.30
2018-05-23T20:03:57.237Z,7.90
2018-05-23T20:06:27.203Z,8.30
2018-05-23T20:08:54.479Z,7.13
2018-05-23T20:11:21.317Z,6.87
2018-05-23T20:13:47.890Z,7.30
2018-05-23T20:16:14.595Z,6.30
2018-05-23T20:18:41.043Z,6.90
2018-05-23T20:21:09.263Z,6.80
2018-05-23T20:23:36.082Z,6.40
2018-05-23T20:26:03.427Z,6.33
2018-05-23T20:28:29.860Z,6.30
2018-05-23T20:30:56.520Z,6.70
2018-05-23T20:33:23.023Z,6.60
2018-05-23T20:35:49.684Z,6.37
2018-05-23T20:38:16.402Z,6.97
2018-05-23T20:40:43.150Z,7.57
2018-05-23T20:43:09.965Z,7.10
2018-05-23T20:45:36.623Z,6.77
2018-05-23T20:48:03.391Z,7.30
2018-05-23T20:50:29.886Z,6.33
2018-05-23T20:52:56.682Z,7.73
2018-05-23T20:55:23.109Z,6.97
2018-05-23T20:57:49.684Z,7.83
2018-05-23T21:00:16.405Z,8.03
2018-05-23T21:02:44.033Z,8.10
2018-05-23T21:05:10.767Z,6.97
2018-05-23T21:07:37.881Z,7.60
2018-05-23T21:10:04.611Z,7.40
2018-05-23T21:12:31.279Z,6.70
2018-05-23T21:14:57.776Z,6.70
2018-05-23T21:17:24.341Z,6.97
2018-05-23T21:19:50.931Z,7.23
2018-05-23T21:22:17.501Z,6.77
2018-05-23T21:24:44.256Z,7.47
2018-05-23T21:27:10.769Z,7.13
2018-05-23T21:29:37.173Z,6.53
2018-05-23T21:32:03.651Z,5.97
2018-05-23T21:34:30.172Z,5.80
2018-05-23T21:36:56.692Z,6.37
2018-05-23T21:39:25.128Z,4.87
2018-05-23T21:41:53.363Z,4.80
2018-05-23T21:44:22.866Z,4.43
2018-05-23T21:46:50.241Z,4.47
2018-05-23T21:49:16.681Z,3.77
2018-05-23T21:51:44.236Z,3.80
2018-05-23T21:54:10.660Z,3.70
2018-05-23T21:56:37.312Z,3.93
2018-05-23T21:59:03.894Z,3.93
2018-05-23T22:01:34.339Z,4.40
2018-05-23T22:04:01.639Z,3.53
2018-05-23T22:06:29.863Z,4.13
2018-05-23T22:08:58.203Z,3.83
2018-05-23T22:11:25.528Z,3.53
2018-05-23T22:14:09.868Z,4.57
2018-05-23T22:16:39.197Z,5.47
2018-05-23T22:19:16.375Z,4.17
2018-05-23T22:21:43.021Z,6.50
2018-05-23T22:24:09.583Z,4.40
2018-05-23T22:26:36.052Z,3.87
2018-05-23T22:29:17.427Z,4.50
2018-05-23T22:31:45.059Z,4.63
2018-05-23T22:34:11.520Z,6.27
2018-05-23T22:36:37.990Z,4.63
2018-05-23T22:39:05.431Z,5.30
2018-05-23T22:41:31.958Z,4.30
2018-05-23T22:43:58.389Z,4.93
2018-05-23T22:46:24.762Z,4.60
2018-05-23T22:48:51.203Z,5.43
2018-05-23T22:51:17.636Z,5.03
2018-05-23T22:53:44.029Z,5.47
2018-05-23T22:56:10.419Z,6.17
2018-05-23T22:58:36.889Z,5.30
2018-05-23T23:01:03.393Z,4.87
2018-05-23T23:03:29.916Z,5.60
2018-05-23T23:05:56.359Z,4.70
2018-05-23T23:08:22.854Z,5.33
2018-05-23T23:10:49.377Z,5.33
2018-05-23T23:13:15.841Z,5.10
2018-05-23T23:15:42.203Z,5.07
2018-05-23T23:18:08.578Z,4.40
2018-05-23T23:20:35.040Z,4.53
2018-05-23T23:23:01.460Z,4.37
2018-05-23T23:25:27.827Z,4.60
2018-05-23T23:27:54.290Z,4.57
2018-05-23T23:30:20.673Z,5.00
2018-05-23T23:32:47.147Z,4.93
2018-05-23T23:35:13.548Z,5.37
2018-05-23T23:37:39.918Z,4.57
2018-05-23T23:40:06.333Z,4.30
2018-05-23T23:42:32.790Z,4.60
2018-05-23T23:44:59.188Z,5.10
2018-05-23T23:47:25.611Z,5.00
2018-05-23T23:49:51.990Z,4.40
2018-05-23T23:52:18.328Z,4.43
2018-05-23T23:54:44.812Z,4.53
2018-05-23T23:57:11.107Z,4.27
2018-05-23T23:59:37.409Z,4.60
